createdAt,value
2023-05-14T00:00:17.511Z,94759.31
2023-05-14T00:02:46.586Z,94755.53
2023-05-14T00:05:14.299Z,94758.81
2023-05-14T00:07:41.923Z,94762.09
2023-05-14T00:10:10.358Z,94755.84
2023-05-14T00:12:37.996Z,94769.22
2023-05-14T00:15:06.468Z,94758.66
2023-05-14T00:17:34.207Z,94767.41
2023-05-14T00:20:03.534Z,94766.09
2023-05-14T00:22:31.168Z,94759.31
2023-05-14T00:24:58.788Z,94757.44
2023-05-14T00:27:26.457Z,94758.00
2023-05-14T00:29:54.068Z,94752.56
2023-05-14T00:32:21.698Z,94754.78
2023-05-14T00:34:49.314Z,94750.41
2023-05-14T00:37:18.297Z,94751.22
2023-05-14T00:39:45.884Z,94744.13
2023-05-14T00:42:13.506Z,94746.59
2023-05-14T00:44:41.152Z,94744.69
2023-05-14T00:47:09.337Z,94748.25
2023-05-14T00:49:37.067Z,94736.28
2023-05-14T00:52:05.170Z,94743.38
2023-05-14T00:54:34.178Z,94739.00
2023-05-14T00:57:02.099Z,94732.16
2023-05-14T00:59:29.900Z,94740.06
2023-05-14T01:01:57.877Z,94731.09
2023-05-14T01:04:25.574Z,94738.44
2023-05-14T01:07:02.159Z,94736.78
2023-05-14T01:09:37.362Z,94730.28
2023-05-14T01:12:09.916Z,94730.28
2023-05-14T01:14:43.419Z,94727.81
2023-05-14T01:17:12.669Z,94730.78
2023-05-14T01:19:42.498Z,94722.03
2023-05-14T01:22:12.091Z,94725.84
2023-05-14T01:24:39.899Z,94721.19
2023-05-14T01:27:11.701Z,94720.38
2023-05-14T01:29:42.915Z,94730.22
2023-05-14T01:32:11.595Z,94722.59
2023-05-14T01:34:40.970Z,94721.56
2023-05-14T01:37:10.898Z,94723.19
2023-05-14T01:39:39.060Z,94718.53
2023-05-14T01:42:07.938Z,94724.00
2023-05-14T01:44:35.773Z,94719.88
2023-05-14T01:47:03.519Z,94716.09
2023-05-14T01:49:31.178Z,94716.09
2023-05-14T01:51:58.785Z,94716.91
2023-05-14T01:54:27.731Z,94707.34
2023-05-14T01:56:55.323Z,94711.47
2023-05-14T01:59:22.935Z,94709.56
2023-05-14T02:01:50.584Z,94707.34
2023-05-14T02:04:18.397Z,94697.81
2023-05-14T02:06:46.317Z,94698.44
2023-05-14T02:09:13.953Z,94701.53
2023-05-14T02:11:42.952Z,94697.97
2023-05-14T02:14:10.771Z,94688.47
2023-05-14T02:16:38.415Z,94695.56
2023-05-14T02:19:06.420Z,94690.69
2023-05-14T02:21:34.131Z,94684.50
2023-05-14T02:24:01.799Z,94691.31
2023-05-14T02:26:29.478Z,94689.69
2023-05-14T02:28:58.724Z,94688.34
2023-05-14T02:31:26.657Z,94691.66
2023-05-14T02:33:54.371Z,94691.97
2023-05-14T02:36:22.034Z,94696.91
2023-05-14T02:38:49.714Z,94693.91
2023-05-14T02:41:17.357Z,94693.34
2023-05-14T02:43:45.073Z,94689.50
2023-05-14T02:46:14.140Z,94692.16
2023-05-14T02:48:41.957Z,94689.69
2023-05-14T02:51:09.637Z,94696.78
2023-05-14T02:53:37.269Z,94694.16
2023-05-14T02:56:05.509Z,94684.13
2023-05-14T02:58:33.141Z,94677.84
2023-05-14T03:01:00.795Z,94682.78
2023-05-14T03:03:30.730Z,94682.22
2023-05-14T03:05:58.913Z,94691.97
2023-05-14T03:08:26.763Z,94687.00
2023-05-14T03:10:54.349Z,94682.63
2023-05-14T03:13:21.975Z,94679.91
2023-05-14T03:15:54.537Z,94676.94
2023-05-14T03:18:22.403Z,94682.63
2023-05-14T03:20:51.327Z,94678.25
2023-05-14T03:23:18.951Z,94665.41
2023-05-14T03:25:46.536Z,94676.06
2023-05-14T03:28:14.137Z,94679.84
2023-05-14T03:30:41.816Z,94679.84
2023-05-14T03:33:09.535Z,94681.75
2023-05-14T03:35:37.116Z,94684.97
2023-05-14T03:38:06.125Z,94679.78
2023-05-14T03:40:33.746Z,94674.81
2023-05-14T03:43:01.376Z,94671.78
2023-05-14T03:45:30.416Z,94670.97
2023-05-14T03:47:58.161Z,94668.75
2023-05-14T03:50:26.282Z,94674.75
2023-05-14T03:52:54.964Z,94670.97
2023-05-14T03:55:24.215Z,94660.91
2023-05-14T03:57:51.863Z,94675.88
2023-05-14T04:00:19.956Z,94671.28
2023-05-14T04:02:47.599Z,94676.72
2023-05-14T04:05:15.306Z,94675.81
2023-05-14T04:07:42.934Z,94673.63
2023-05-14T04:10:10.961Z,94674.13
2023-05-14T04:12:39.925Z,94674.13
2023-05-14T04:15:08.708Z,94677.66
2023-05-14T04:17:36.337Z,94672.72
2023-05-14T04:20:04.345Z,94672.16
2023-05-14T04:22:32.056Z,94672.97
2023-05-14T04:24:59.659Z,94671.09
2023-05-14T04:27:27.750Z,94666.38
2023-05-14T04:29:56.820Z,94666.97
2023-05-14T04:32:24.621Z,94673.72
2023-05-14T04:34:52.266Z,94671.84
2023-05-14T04:37:19.928Z,94673.97
2023-05-14T04:39:47.515Z,94663.59
2023-05-14T04:42:15.132Z,94669.03
2023-05-14T04:44:42.710Z,94668.53
2023-05-14T04:47:11.684Z,94675.59
2023-05-14T04:49:39.262Z,94674.31
2023-05-14T04:52:07.443Z,94665.53
2023-05-14T04:54:35.158Z,94674.53
2023-05-14T04:57:03.447Z,94675.59
2023-05-14T04:59:31.159Z,94678.66
2023-05-14T05:01:58.805Z,94672.47
2023-05-14T05:04:27.828Z,94667.59
2023-05-14T05:06:55.506Z,94674.44
2023-05-14T05:09:23.113Z,94671.78
2023-05-14T05:11:50.771Z,94668.00
2023-05-14T05:14:18.423Z,94672.91
2023-05-14T05:16:46.144Z,94670.78
2023-05-14T05:19:13.846Z,94673.25
2023-05-14T05:21:42.943Z,94681.44
2023-05-14T05:24:10.552Z,94671.09
2023-05-14T05:26:38.242Z,94670.00
2023-05-14T05:29:05.936Z,94679.53
2023-05-14T05:31:33.640Z,94674.09
2023-05-14T05:34:01.338Z,94684.47
2023-05-14T05:36:28.920Z,94678.19
2023-05-14T05:38:57.885Z,94679.03
2023-05-14T05:41:26.534Z,94681.75
2023-05-14T05:43:54.065Z,94686.34
2023-05-14T05:46:21.792Z,94684.47
2023-05-14T05:48:49.421Z,94680.91
2023-05-14T05:51:17.030Z,94689.59
2023-05-14T05:53:44.619Z,94688.50
2023-05-14T05:56:13.651Z,94685.28
2023-05-14T05:58:41.288Z,94692.38
2023-05-14T06:01:08.973Z,94690.41
2023-05-14T06:03:36.556Z,94685.72
2023-05-14T06:06:04.190Z,94695.47
2023-05-14T06:08:31.803Z,94687.31
2023-05-14T06:10:59.439Z,94690.34
2023-05-14T06:13:28.359Z,94681.31
2023-05-14T06:15:55.938Z,94691.16
2023-05-14T06:18:23.522Z,94688.75
2023-05-14T06:20:51.138Z,94678.72
2023-05-14T06:23:18.720Z,94689.91
2023-05-14T06:25:46.741Z,94684.22
2023-05-14T06:28:15.087Z,94683.97
2023-05-14T06:30:44.072Z,94683.69
2023-05-14T06:33:13.204Z,94677.75
2023-05-14T06:35:40.874Z,94678.59
2023-05-14T06:38:08.474Z,94681.31
2023-05-14T06:40:36.080Z,94679.09
2023-05-14T06:43:03.859Z,94683.81
2023-05-14T06:45:33.114Z,94673.75
2023-05-14T06:48:02.322Z,94690.88
2023-05-14T06:50:30.017Z,94677.84
2023-05-14T06:52:57.642Z,94681.97
2023-05-14T06:55:25.272Z,94682.53
2023-05-14T06:57:52.882Z,94680.06
2023-05-14T07:00:21.984Z,94683.44
2023-05-14T07:02:49.725Z,94677.47
2023-05-14T07:05:18.721Z,94681.84
2023-05-14T07:07:46.349Z,94687.09
2023-05-14T07:10:13.890Z,94685.25
2023-05-14T07:12:41.498Z,94687.47
2023-05-14T07:15:10.419Z,94680.19
2023-05-14T07:17:38.022Z,94687.03
2023-05-14T07:20:06.770Z,94682.13
2023-05-14T07:22:35.701Z,94682.72
2023-05-14T07:25:03.310Z,94682.72
2023-05-14T07:27:30.924Z,94678.97
2023-05-14T07:29:58.550Z,94672.19
2023-05-14T07:32:26.314Z,94669.22
2023-05-14T07:34:53.943Z,94655.66
2023-05-14T07:37:23.966Z,94661.72
2023-05-14T07:39:53.300Z,94650.66
2023-05-14T07:42:34.379Z,94646.59
2023-05-14T07:45:03.162Z,94650.75
2023-05-14T07:47:31.085Z,94649.88
2023-05-14T07:49:59.002Z,94639.03
2023-05-14T07:52:26.644Z,94644.31
2023-05-14T07:54:55.722Z,94647.38
2023-05-14T07:57:23.292Z,94651.25
2023-05-14T07:59:50.986Z,94650.63
2023-05-14T08:02:18.662Z,94644.66
2023-05-14T08:04:46.397Z,94645.25
2023-05-14T08:07:14.028Z,94650.16
2023-05-14T08:09:41.597Z,94648.53
2023-05-14T08:12:10.749Z,94653.72
2023-05-14T08:14:38.373Z,94648.81
2023-05-14T08:17:06.128Z,94648.59
2023-05-14T08:19:33.879Z,94649.38
2023-05-14T08:22:01.494Z,94646.94
2023-05-14T08:24:29.192Z,94647.56
2023-05-14T08:26:56.930Z,94644.00
2023-05-14T08:29:25.954Z,94644.47
2023-05-14T08:31:53.556Z,94641.78
2023-05-14T08:34:21.258Z,94644.25
2023-05-14T08:36:48.863Z,94640.44
2023-05-14T08:39:16.471Z,94647.56
2023-05-14T08:41:44.385Z,94644.28
2023-05-14T08:44:14.382Z,94639.19
2023-05-14T08:46:43.366Z,94639.47
2023-05-14T08:49:26.504Z,94636.75
2023-05-14T08:51:54.275Z,94648.75
2023-05-14T08:54:23.768Z,94638.97
2023-05-14T08:56:52.632Z,94631.34
2023-05-14T08:59:20.445Z,94638.91
2023-05-14T09:01:50.045Z,94637.31
2023-05-14T09:04:21.178Z,94640.56
2023-05-14T09:06:50.336Z,94637.53
2023-05-14T09:09:18.118Z,94626.31
2023-05-14T09:11:47.701Z,94638.72
2023-05-14T09:14:15.993Z,94634.94
2023-05-14T09:16:45.105Z,94628.34
2023-05-14T09:19:15.740Z,94639.16
2023-05-14T09:21:43.874Z,94637.41
2023-05-14T09:24:20.187Z,94635.28
2023-05-14T09:26:51.543Z,94633.59
2023-05-14T09:29:19.192Z,94640.34
2023-05-14T09:31:46.873Z,94638.81
2023-05-14T09:34:25.003Z,94633.72
2023-05-14T09:36:56.845Z,94636.19
2023-05-14T09:39:24.887Z,94635.38
2023-05-14T09:41:52.917Z,94636.41
2023-05-14T09:44:20.786Z,94642.94
2023-05-14T09:46:49.110Z,94642.34
2023-05-14T09:49:18.658Z,94637.38
2023-05-14T09:51:46.393Z,94634.13
2023-05-14T09:54:13.976Z,94639.63
2023-05-14T09:56:41.645Z,94637.41
2023-05-14T09:59:09.280Z,94636.81
2023-05-14T10:01:37.433Z,94635.19
2023-05-14T10:04:08.000Z,94628.66
2023-05-14T10:06:38.565Z,94628.84
2023-05-14T10:09:08.541Z,94631.28
2023-05-14T10:11:39.139Z,94629.28
2023-05-14T10:14:09.481Z,94629.84
2023-05-14T10:16:39.127Z,94630.16
2023-05-14T10:19:09.508Z,94629.13
2023-05-14T10:21:39.657Z,94627.38
2023-05-14T10:24:09.270Z,94639.78
2023-05-14T10:26:39.607Z,94637.09
2023-05-14T10:29:07.506Z,94630.50
2023-05-14T10:31:48.665Z,94632.81
2023-05-14T10:34:37.190Z,94637.16
2023-05-14T10:37:07.779Z,94641.38
2023-05-14T10:39:42.484Z,94640.41
2023-05-14T10:42:12.187Z,94632.31
2023-05-14T10:44:44.106Z,94633.50
2023-05-14T10:47:12.310Z,94635.75
2023-05-14T10:49:43.901Z,94634.09
2023-05-14T10:52:13.453Z,94633.53
2023-05-14T10:54:41.087Z,94626.00
2023-05-14T10:57:12.605Z,94629.84
2023-05-14T10:59:43.380Z,94623.97
2023-05-14T11:02:21.665Z,94618.06
2023-05-14T11:05:00.443Z,94621.66
2023-05-14T11:07:31.024Z,94624.94
2023-05-14T11:10:02.559Z,94620.28
2023-05-14T11:12:30.285Z,94620.00
2023-05-14T11:14:59.050Z,94612.63
2023-05-14T11:17:27.539Z,94613.41
2023-05-14T11:19:55.891Z,94618.78
2023-05-14T11:22:23.779Z,94615.41
2023-05-14T11:24:52.836Z,94616.19
2023-05-14T11:27:20.871Z,94604.69
2023-05-14T11:29:49.756Z,94604.16
2023-05-14T11:32:18.031Z,94598.22
2023-05-14T11:34:46.863Z,94604.25
2023-05-14T11:37:15.723Z,94596.06
2023-05-14T11:39:48.889Z,94599.38
2023-05-14T11:42:19.443Z,94600.72
2023-05-14T11:44:48.996Z,94595.03
2023-05-14T11:47:17.639Z,94604.06
2023-05-14T11:49:45.849Z,94593.69
2023-05-14T11:52:15.024Z,94587.41
2023-05-14T11:54:43.760Z,94592.84
2023-05-14T11:57:13.094Z,94592.34
2023-05-14T11:59:42.080Z,94588.00
2023-05-14T12:02:11.640Z,94577.63
2023-05-14T12:04:39.562Z,94582.84
2023-05-14T12:07:11.489Z,94579.31
2023-05-14T12:09:42.599Z,94578.28
2023-05-14T12:12:12.795Z,94567.91
2023-05-14T12:14:43.542Z,94582.34
2023-05-14T12:17:13.680Z,94585.41
2023-05-14T12:19:42.617Z,94580.47
2023-05-14T12:22:10.797Z,94574.44
2023-05-14T12:24:39.241Z,94575.81
2023-05-14T12:27:08.310Z,94579.09
2023-05-14T12:29:40.049Z,94576.69
2023-05-14T12:32:11.891Z,94572.56
2023-05-14T12:34:40.408Z,94578.84
2023-05-14T12:37:08.054Z,94564.09
2023-05-14T12:39:35.742Z,94574.16
2023-05-14T12:42:03.517Z,94556.94
2023-05-14T12:44:31.275Z,94549.56
2023-05-14T12:46:58.986Z,94550.38
2023-05-14T12:49:28.069Z,94550.63
2023-05-14T12:52:07.697Z,94559.41
2023-05-14T12:54:43.605Z,94557.47
2023-05-14T12:57:11.248Z,94551.25
2023-05-14T12:59:38.857Z,94555.09
2023-05-14T13:02:06.583Z,94550.72
2023-05-14T13:04:35.638Z,94546.06
2023-05-14T13:07:03.332Z,94542.19
2023-05-14T13:09:30.937Z,94531.31
2023-05-14T13:11:58.875Z,94522.63
2023-05-14T13:14:26.811Z,94520.63
2023-05-14T13:16:54.452Z,94525.59
2023-05-14T13:19:22.079Z,94522.69
2023-05-14T13:21:51.006Z,94521.06
2023-05-14T13:24:18.630Z,94521.09
2023-05-14T13:26:46.204Z,94515.56
2023-05-14T13:29:13.811Z,94513.97
2023-05-14T13:31:41.410Z,94509.63
2023-05-14T13:34:10.248Z,94499.09
2023-05-14T13:36:39.570Z,94502.97
2023-05-14T13:39:08.606Z,94496.44
2023-05-14T13:41:37.769Z,94495.91
2023-05-14T13:44:05.829Z,94488.31
2023-05-14T13:46:33.858Z,94489.44
2023-05-14T13:49:02.013Z,94493.66
2023-05-14T13:51:29.626Z,94481.03
2023-05-14T13:53:57.232Z,94473.69
2023-05-14T13:56:26.209Z,94473.94
2023-05-14T13:58:54.072Z,94471.22
2023-05-14T14:01:23.276Z,94467.88
2023-05-14T14:03:51.074Z,94464.00
2023-05-14T14:06:18.743Z,94465.22
2023-05-14T14:08:46.389Z,94461.13
2023-05-14T14:11:14.050Z,94461.19
2023-05-14T14:13:45.106Z,94462.75
2023-05-14T14:16:14.078Z,94450.28
2023-05-14T14:18:43.290Z,94443.09
2023-05-14T14:21:11.159Z,94441.19
2023-05-14T14:23:38.906Z,94438.56
2023-05-14T14:26:06.544Z,94440.72
2023-05-14T14:28:34.158Z,94445.13
2023-05-14T14:31:03.225Z,94437.28
2023-05-14T14:33:30.889Z,94435.38
2023-05-14T14:35:58.482Z,94429.56
2023-05-14T14:38:26.260Z,94422.13
2023-05-14T14:40:54.235Z,94427.91
2023-05-14T14:43:21.884Z,94422.72
2023-05-14T14:45:49.581Z,94422.66
2023-05-14T14:48:27.998Z,94418.91
2023-05-14T14:50:56.148Z,94420.13
2023-05-14T14:53:24.594Z,94421.44
2023-05-14T14:55:52.653Z,94416.31
2023-05-14T14:58:21.174Z,94415.47
2023-05-14T15:00:49.366Z,94416.72
2023-05-14T15:03:17.194Z,94406.59
2023-05-14T15:05:46.425Z,94417.66
2023-05-14T15:08:14.137Z,94412.34
2023-05-14T15:10:41.965Z,94414.13
2023-05-14T15:13:10.218Z,94415.97
2023-05-14T15:15:38.331Z,94407.88
2023-05-14T15:18:06.263Z,94406.09
2023-05-14T15:20:33.927Z,94404.06
2023-05-14T15:23:03.174Z,94394.41
2023-05-14T15:25:30.991Z,94400.69
2023-05-14T15:27:58.754Z,94403.94
2023-05-14T15:30:26.374Z,94394.94
2023-05-14T15:32:54.039Z,94399.06
2023-05-14T15:35:21.831Z,94390.81
2023-05-14T15:37:49.559Z,94391.75
2023-05-14T15:40:20.070Z,94404.31
2023-05-14T15:42:47.814Z,94397.69
2023-05-14T15:45:15.552Z,94388.25
2023-05-14T15:47:44.238Z,94386.09
2023-05-14T15:50:12.326Z,94386.84
2023-05-14T15:52:41.545Z,94397.19
2023-05-14T15:55:09.972Z,94392.97
2023-05-14T15:57:39.082Z,94389.56
2023-05-14T16:00:10.525Z,94392.72
2023-05-14T16:02:38.287Z,94388.47
2023-05-14T16:05:06.741Z,94391.25
2023-05-14T16:07:34.541Z,94393.53
2023-05-14T16:10:02.158Z,94392.09
2023-05-14T16:12:29.792Z,94385.19
2023-05-14T16:14:59.885Z,94377.84
2023-05-14T16:17:27.688Z,94380.69
2023-05-14T16:19:56.420Z,94374.75
2023-05-14T16:22:24.432Z,94365.16
2023-05-14T16:24:52.054Z,94371.50
2023-05-14T16:27:19.706Z,94372.53
2023-05-14T16:29:47.306Z,94362.50
2023-05-14T16:32:16.374Z,94374.31
2023-05-14T16:34:49.442Z,94365.47
2023-05-14T16:37:17.354Z,94373.13
2023-05-14T16:39:44.953Z,94378.91
2023-05-14T16:42:12.701Z,94362.34
2023-05-14T16:44:40.443Z,94358.81
2023-05-14T16:47:08.095Z,94364.28
2023-05-14T16:49:37.183Z,94376.81
2023-05-14T16:52:05.367Z,94386.28
2023-05-14T16:54:32.958Z,94379.13
2023-05-14T16:57:00.579Z,94377.75
2023-05-14T16:59:28.223Z,94388.34
2023-05-14T17:01:56.167Z,94391.03
2023-05-14T17:04:25.124Z,94398.56
2023-05-14T17:06:54.182Z,94401.44
2023-05-14T17:09:21.796Z,94398.22
2023-05-14T17:11:49.447Z,94410.91
2023-05-14T17:14:17.203Z,94415.59
2023-05-14T17:16:44.838Z,94421.38
2023-05-14T17:19:12.600Z,94421.91
2023-05-14T17:21:40.275Z,94431.25
2023-05-14T17:24:09.453Z,94435.66
2023-05-14T17:26:37.677Z,94443.31
2023-05-14T17:29:05.306Z,94443.03
2023-05-14T17:31:33.027Z,94444.13
2023-05-14T17:34:00.775Z,94449.06
2023-05-14T17:36:28.832Z,94453.13
2023-05-14T17:38:56.477Z,94457.78
2023-05-14T17:41:25.494Z,94464.06
2023-05-14T17:43:53.227Z,94460.00
2023-05-14T17:46:21.521Z,94465.72
2023-05-14T17:48:49.201Z,94462.41
2023-05-14T17:51:16.839Z,94471.47
2023-05-14T17:53:44.485Z,94463.53
2023-05-14T17:56:12.598Z,94465.16
2023-05-14T17:58:41.665Z,94469.00
2023-05-14T18:01:09.423Z,94470.88
2023-05-14T18:03:37.295Z,94467.34
2023-05-14T18:06:05.722Z,94464.88
2023-05-14T18:08:33.725Z,94464.63
2023-05-14T18:11:03.570Z,94466.25
2023-05-14T18:13:31.186Z,94470.06
2023-05-14T18:16:01.158Z,94464.88
2023-05-14T18:18:28.775Z,94475.22
2023-05-14T18:20:56.445Z,94472.47
2023-05-14T18:23:24.237Z,94478.50
2023-05-14T18:25:51.883Z,94483.09
2023-05-14T18:28:21.333Z,94469.44
2023-05-14T18:30:49.784Z,94471.34
2023-05-14T18:33:18.783Z,94475.44
2023-05-14T18:35:46.439Z,94468.88
2023-05-14T18:38:14.093Z,94472.16
2023-05-14T18:40:41.838Z,94466.16
2023-05-14T18:43:10.767Z,94471.09
2023-05-14T18:45:39.008Z,94469.44
2023-05-14T18:48:07.268Z,94472.97
2023-05-14T18:50:38.681Z,94478.16
2023-05-14T18:53:06.968Z,94464.69
2023-05-14T18:55:35.970Z,94466.53
2023-05-14T18:58:03.596Z,94472.53
2023-05-14T19:00:31.213Z,94470.84
2023-05-14T19:02:58.888Z,94472.91
2023-05-14T19:05:26.703Z,94477.50
2023-05-14T19:07:55.839Z,94473.44
2023-05-14T19:10:23.533Z,94478.13
2023-05-14T19:12:51.145Z,94478.41
2023-05-14T19:15:18.898Z,94472.16
2023-05-14T19:17:46.561Z,94478.09
2023-05-14T19:20:14.207Z,94474.53
2023-05-14T19:22:41.777Z,94479.13
2023-05-14T19:25:12.121Z,94486.97
2023-05-14T19:27:39.807Z,94488.00
2023-05-14T19:30:08.527Z,94489.09
2023-05-14T19:32:37.607Z,94486.41
2023-05-14T19:35:06.054Z,94488.09
2023-05-14T19:37:34.134Z,94483.47
2023-05-14T19:40:01.846Z,94478.84
2023-05-14T19:42:31.763Z,94488.63
2023-05-14T19:44:59.359Z,94486.47
2023-05-14T19:47:28.467Z,94487.53
2023-05-14T19:49:56.249Z,94480.13
2023-05-14T19:52:23.860Z,94495.06
2023-05-14T19:54:51.450Z,94492.06
2023-05-14T19:57:19.049Z,94494.03
2023-05-14T19:59:48.028Z,94493.44
2023-05-14T20:02:18.181Z,94494.25
2023-05-14T20:04:47.393Z,94491.78
2023-05-14T20:07:15.874Z,94486.84
2023-05-14T20:09:43.609Z,94486.56
2023-05-14T20:12:12.896Z,94486.25
2023-05-14T20:14:41.065Z,94493.03
2023-05-14T20:17:10.253Z,94485.63
2023-05-14T20:19:37.967Z,94487.28
2023-05-14T20:22:06.064Z,94484.00
2023-05-14T20:24:33.663Z,94486.75
2023-05-14T20:27:01.597Z,94492.16
2023-05-14T20:29:29.650Z,94492.03
2023-05-14T20:31:57.591Z,94492.88
2023-05-14T20:34:26.607Z,94489.81
2023-05-14T20:36:54.302Z,94490.75
2023-05-14T20:39:22.164Z,94493.81
2023-05-14T20:41:49.853Z,94489.44
2023-05-14T20:44:18.470Z,94480.53
2023-05-14T20:46:48.253Z,94482.75
2023-05-14T20:49:15.963Z,94482.53
2023-05-14T20:51:44.954Z,94482.59
2023-05-14T20:54:12.565Z,94482.53
2023-05-14T20:56:40.247Z,94484.75
2023-05-14T20:59:07.852Z,94483.16
2023-05-14T21:01:35.603Z,94487.56
2023-05-14T21:04:03.388Z,94490.59
2023-05-14T21:06:31.242Z,94497.34
2023-05-14T21:09:00.501Z,94486.38
2023-05-14T21:11:28.167Z,94486.13
2023-05-14T21:13:55.801Z,94479.56
2023-05-14T21:16:23.881Z,94474.97
2023-05-14T21:18:51.545Z,94474.22
2023-05-14T21:21:19.245Z,94472.03
2023-05-14T21:23:46.933Z,94479.44
2023-05-14T21:26:16.010Z,94480.03
2023-05-14T21:28:43.663Z,94480.03
2023-05-14T21:31:11.340Z,94476.75
2023-05-14T21:33:40.736Z,94480.84
2023-05-14T21:36:09.040Z,94477.63
2023-05-14T21:38:36.821Z,94479.53
2023-05-14T21:41:04.577Z,94472.94
2023-05-14T21:43:33.578Z,94469.91
2023-05-14T21:46:01.281Z,94474.81
2023-05-14T21:48:29.386Z,94469.88
2023-05-14T21:50:57.408Z,94466.09
2023-05-14T21:53:25.075Z,94462.59
2023-05-14T21:55:52.761Z,94456.59
2023-05-14T21:58:20.335Z,94457.19
2023-05-14T22:00:49.471Z,94462.31
2023-05-14T22:03:17.150Z,94460.44
2023-05-14T22:05:44.797Z,94468.28
2023-05-14T22:08:12.374Z,94459.25
2023-05-14T22:10:40.043Z,94471.97
2023-05-14T22:13:07.623Z,94470.81
2023-05-14T22:15:35.365Z,94468.34
2023-05-14T22:18:04.518Z,94470.81
2023-05-14T22:20:32.309Z,94461.84
2023-05-14T22:22:59.961Z,94467.03
2023-05-14T22:25:27.861Z,94468.69
2023-05-14T22:27:55.527Z,94468.56
2023-05-14T22:30:23.378Z,94467.91
2023-05-14T22:32:51.048Z,94464.03
2023-05-14T22:35:20.142Z,94467.00
2023-05-14T22:37:47.765Z,94465.34
2023-05-14T22:40:15.385Z,94462.88
2023-05-14T22:42:43.069Z,94456.38
2023-05-14T22:45:11.244Z,94453.16
2023-05-14T22:47:38.934Z,94444.44
2023-05-14T22:50:11.610Z,94433.31
2023-05-14T22:52:41.215Z,94444.75
2023-05-14T22:55:09.585Z,94443.91
2023-05-14T22:57:37.235Z,94447.16
2023-05-14T23:00:07.206Z,94454.53
2023-05-14T23:02:34.841Z,94450.72
2023-05-14T23:05:02.585Z,94455.09
2023-05-14T23:07:30.211Z,94458.06
2023-05-14T23:09:59.173Z,94458.06
2023-05-14T23:12:26.822Z,94451.00
2023-05-14T23:14:54.495Z,94453.47
2023-05-14T23:17:22.221Z,94447.16
2023-05-14T23:19:49.978Z,94451.28
2023-05-14T23:22:17.709Z,94447.50
2023-05-14T23:24:45.390Z,94444.78
2023-05-14T23:27:14.441Z,94431.75
2023-05-14T23:29:42.062Z,94426.03
2023-05-14T23:32:09.750Z,94432.00
2023-05-14T23:34:37.369Z,94421.81
2023-05-14T23:37:05.188Z,94415.72
2023-05-14T23:39:32.863Z,94418.16
2023-05-14T23:42:00.542Z,94416.75
2023-05-14T23:44:29.526Z,94424.59
2023-05-14T23:46:57.212Z,94420.94
2023-05-14T23:49:24.819Z,94415.75
2023-05-14T23:51:52.452Z,94416.59
2023-05-14T23:54:20.074Z,94409.00
2023-05-14T23:56:47.756Z,94409.50
2023-05-14T23:59:15.406Z,94412.28
